Time;durP1;ratioP1;P1;durP2;ratioP2;P2;SDS_P1;SDS_P2;PMS_P1;PMS_P2;Temp;Humidity;BMP_temperature;BMP_pressure;BME280_temperature;BME280_humidity;BME280_pressure;Samples;Min_cycle;Max_cycle;Signal;HPM_P1;HPM_P2
2022/01/25 00:24:17;;;;;;;19.17;9.30;;;;;;;-7.38;64.35;98403.31;6149066;23;20414;-83
2022/01/25 00:24:33;;;;;;;17.63;8.93;;;;;;;-7.07;63.60;98430.69;6149352;23;20413;-81
2022/01/25 00:27:38;;;;;;;12.63;8.27;;;;;;;-7.08;62.89;98432.34;6149421;23;20728;-81
2022/01/25 00:30:23;;;;;;;15.13;8.53;;;;;;;-7.24;63.04;98434.09;6149061;23;20406;-82
2022/01/25 00:32:48;;;;;;;14.27;8.03;;;;;;;-7.42;63.19;98378.81;6126158;23;20406;-90
2022/01/25 00:35:16;;;;;;;12.63;7.77;;;;;;;-7.10;63.11;98441.47;6127537;23;20482;-93
2022/01/25 00:37:43;;;;;;;12.47;8.10;;;;;;;-7.02;63.88;98440.16;6127582;23;20442;-90
2022/01/25 00:40:10;;;;;;;19.73;8.97;;;;;;;-7.01;62.90;98436.00;6082018;23;20748;-93
2022/01/25 00:42:38;;;;;;;20.97;10.57;;;;;;;-6.93;63.34;98434.66;6129825;23;20475;-87
2022/01/25 00:45:10;;;;;;;15.53;8.17;;;;;;;-7.15;62.35;98430.31;6129628;23;20453;-94
2022/01/25 00:47:40;;;;;;;21.03;10.57;;;;;;;-7.29;62.81;98428.84;6130664;23;20418;-96
2022/01/25 00:50:14;;;;;;;27.47;11.50;;;;;;;-7.62;63.82;98425.66;6155283;23;20414;-84
2022/01/25 00:55:13;;;;;;;22.73;10.63;;;;;;;-7.83;64.90;98432.19;6151029;23;20391;-89
2022/01/25 00:57:41;;;;;;;26.87;12.70;;;;;;;-7.95;64.26;98385.50;6104563;23;20454;-81
2022/01/25 01:00:10;;;;;;;13.93;7.50;;;;;;;-7.83;64.01;98436.38;6132050;23;20469;-81
2022/01/25 01:02:43;;;;;;;16.53;7.17;;;;;;;-7.60;64.42;98425.72;6110224;23;20949;-83
2022/01/25 01:05:11;;;;;;;16.10;8.67;;;;;;;-7.48;64.02;98416.25;6130552;23;20478;-81
2022/01/25 01:07:41;;;;;;;20.33;10.07;;;;;;;-7.29;64.18;98425.50;6127600;23;20480;-81
2022/01/25 01:10:11;;;;;;;22.40;10.33;;;;;;;-7.21;63.68;98389.78;6154851;23;20409;-87
2022/01/25 01:32:20;;;;;;;15.87;6.97;;;;;;;-7.05;61.84;98417.38;6122676;23;20407;-81
2022/01/25 01:45:37;;;;;;;24.10;10.57;;;;;;;-6.72;62.50;98400.34;6148994;23;20477;-81
2022/01/25 01:48:08;;;;;;;31.23;9.23;;;;;;;-6.99;62.43;98402.56;6122668;23;20410;-81
2022/01/25 01:50:37;;;;;;;16.67;8.53;;;;;;;-7.11;63.14;98389.41;6148266;23;20410;-81
2022/01/25 01:53:07;;;;;;;18.23;8.13;;;;;;;-7.03;62.84;98400.69;6123984;23;20410;-83
2022/01/25 01:55:35;;;;;;;16.20;8.37;;;;;;;-7.33;63.49;98366.63;6097863;23;20410;-84
2022/01/25 01:58:04;;;;;;;20.60;9.10;;;;;;;-7.16;63.73;98390.88;6148732;23;20929;-82
2022/01/25 02:00:40;;;;;;;24.00;10.87;;;;;;;-7.14;63.38;98359.09;6123124;23;20449;-82
2022/01/25 02:03:08;;;;;;;18.73;9.43;;;;;;;-7.07;63.15;98365.25;6122454;23;20410;-81
2022/01/25 02:05:37;;;;;;;22.37;9.70;;;;;;;-7.07;63.10;98371.16;6149280;23;20527;-81
2022/01/25 02:08:05;;;;;;;23.57;9.50;;;;;;;-7.16;63.50;98375.78;6122607;23;20407;-81
2022/01/25 02:10:33;;;;;;;14.43;8.13;;;;;;;-7.23;63.52;98346.09;6123699;23;20766;-81
2022/01/25 02:13:05;;;;;;;16.30;7.70;;;;;;;-7.04;63.78;98361.22;6123612;23;20481;-82
2022/01/25 02:15:36;;;;;;;13.90;7.27;;;;;;;-7.03;62.78;98332.75;6149599;23;20925;-82
2022/01/25 02:23:42;;;;;;;14.17;7.07;;;;;;;-7.03;62.07;98352.88;6127732;23;20429;-93
2022/01/25 02:26:15;;;;;;;11.53;6.63;;;;;;;-7.13;62.48;98354.94;6103564;23;20454;-93
2022/01/25 02:28:45;;;;;;;12.40;7.20;;;;;;;-7.00;62.45;98352.13;6127605;23;20410;-88
2022/01/25 02:31:16;;;;;;;10.53;6.40;;;;;;;-6.97;62.42;98343.06;6104668;23;20394;-89
2022/01/25 02:33:47;;;;;;;12.13;7.33;;;;;;;-7.20;61.96;98303.47;6132849;23;20424;-91
2022/01/25 02:36:28;;;;;;;14.93;7.40;;;;;;;-6.79;62.04;98333.78;6159945;23;20438;-86
2022/01/25 02:38:56;;;;;;;12.87;7.77;;;;;;;-6.80;61.54;98337.06;6164498;23;20430;-95
2022/01/25 02:41:24;;;;;;;10.57;6.80;;;;;;;-6.78;61.79;98332.97;6162469;23;20414;-83
2022/01/25 02:43:52;;;;;;;18.80;8.60;;;;;;;-6.65;61.88;98335.19;6135520;23;20462;-84
2022/01/25 02:49:02;;;;;;;12.53;6.07;;;;;;;-6.78;61.05;98338.00;6172136;23;20485;-85
2022/01/25 02:51:31;;;;;;;9.17;6.33;;;;;;;-6.72;60.21;98335.72;6173476;23;20478;-84
2022/01/25 02:54:02;;;;;;;10.10;5.33;;;;;;;-6.78;60.15;98325.41;6145835;23;20411;-81
2022/01/25 02:56:30;;;;;;;11.70;5.40;;;;;;;-6.97;59.99;98304.44;6174115;23;20408;-84
2022/01/25 02:59:04;;;;;;;7.47;5.63;;;;;;;-6.97;60.74;98317.91;6123439;23;20394;-82
2022/01/25 03:01:34;;;;;;;11.87;5.70;;;;;;;-7.05;59.92;98273.06;6140304;23;20442;-91
2022/01/25 03:04:03;;;;;;;11.23;6.27;;;;;;;-6.70;59.87;98313.16;6162232;23;20405;-96
2022/01/25 03:06:31;;;;;;;8.97;5.20;;;;;;;-6.75;59.37;98299.50;6137580;23;20994;-90
2022/01/25 03:09:00;;;;;;;14.23;5.60;;;;;;;-7.03;60.05;98302.53;6132179;23;20462;-89
2022/01/25 03:11:50;;;;;;;11.07;6.60;;;;;;;-7.18;61.02;98295.97;6165186;23;20929;-84
2022/01/25 03:14:47;;;;;;;11.47;5.90;;;;;;;-7.32;61.63;98282.81;6173004;23;20993;-85
2022/01/25 03:17:45;;;;;;;12.90;6.73;;;;;;;-7.47;61.33;98269.59;6168541;23;20405;-89
2022/01/25 03:20:20;;;;;;;18.77;6.97;;;;;;;-7.17;61.93;98298.56;6149335;23;20399;-86
2022/01/25 03:25:26;;;;;;;12.57;6.50;;;;;;;-6.90;62.27;98284.63;6136131;23;20435;-83
2022/01/25 03:27:53;;;;;;;10.77;6.40;;;;;;;-6.82;61.69;98268.16;6149362;23;20473;-82
2022/01/25 03:30:21;;;;;;;11.80;6.70;;;;;;;-6.96;62.05;98270.91;6155748;23;20406;-89
2022/01/25 03:32:48;;;;;;;11.17;6.23;;;;;;;-7.01;60.73;98252.25;6149177;23;21154;-93
2022/01/25 03:35:16;;;;;;;12.20;7.37;;;;;;;-6.65;60.44;98287.34;6145983;23;20398;-82
2022/01/25 03:37:45;;;;;;;10.60;6.07;;;;;;;-6.61;60.56;98273.22;6126487;23;20454;-84
2022/01/25 03:40:15;;;;;;;17.57;7.33;;;;;;;-6.47;60.93;98282.16;6149713;23;20460;-83
2022/01/25 03:42:44;;;;;;;9.33;5.10;;;;;;;-6.37;59.90;98271.69;6123359;23;20414;-83
2022/01/25 03:45:18;;;;;;;11.20;6.60;;;;;;;-6.24;60.73;98278.91;6098684;23;20421;-82
2022/01/25 03:47:59;;;;;;;10.00;5.47;;;;;;;-6.14;60.36;98288.53;6124661;23;20442;-84
2022/01/25 03:50:29;;;;;;;11.33;6.43;;;;;;;-6.19;60.35;98258.94;6127124;23;20398;-81
2022/01/25 03:52:57;;;;;;;12.83;6.40;;;;;;;-6.13;60.55;98261.69;6099087;23;20449;-83
2022/01/25 03:55:25;;;;;;;11.90;7.07;;;;;;;-5.95;59.87;98277.50;6123152;23;20401;-85
2022/01/25 03:57:56;;;;;;;10.07;6.00;;;;;;;-6.03;59.21;98259.56;6148989;23;20410;-82
2022/01/25 04:00:23;;;;;;;7.47;4.70;;;;;;;-5.84;59.87;98254.41;6074790;23;20434;-82
2022/01/25 04:03:00;;;;;;;8.60;4.80;;;;;;;-5.79;58.64;98247.84;6124084;23;20411;-83
2022/01/25 04:05:37;;;;;;;8.77;4.83;;;;;;;-5.85;58.44;98219.91;6149166;23;20438;-82
2022/01/25 04:08:05;;;;;;;7.97;4.87;;;;;;;-5.35;57.10;98272.16;6131801;23;20716;-84
2022/01/25 04:10:33;;;;;;;7.00;3.60;;;;;;;-5.16;57.26;98294.72;6167060;23;20402;-86
2022/01/25 04:13:00;;;;;;;5.63;4.13;;;;;;;-5.07;56.52;98277.34;6167786;23;20403;-85
2022/01/25 04:15:29;;;;;;;7.03;4.80;;;;;;;-5.21;57.07;98272.63;6141084;23;20717;-82
2022/01/25 04:18:21;;;;;;;7.67;5.10;;;;;;;-5.54;58.18;98241.19;6141577;23;20414;-87
2022/01/25 04:26:16;;;;;;;11.60;7.07;;;;;;;-5.77;58.72;98225.22;6158416;23;20443;-85
2022/01/25 04:28:45;;;;;;;12.77;7.17;;;;;;;-5.87;59.40;98239.16;6127756;23;20410;-83
2022/01/25 04:31:16;;;;;;;18.80;10.23;;;;;;;-5.79;60.33;98252.88;6129347;23;20407;-83
2022/01/25 04:53:29;;;;;;;9.17;6.20;;;;;;;-7.05;62.83;98238.69;6065678;23;20922;-79
2022/01/25 04:56:06;;;;;;;12.40;6.93;;;;;;;-7.37;63.37;98216.34;6128259;23;20918;-80
2022/01/25 04:59:10;;;;;;;13.20;6.17;;;;;;;-7.36;63.83;98235.69;6127190;23;20513;-82
2022/01/25 05:01:31;;;;;;;12.73;6.63;;;;;;;-7.49;64.78;98241.84;6128801;23;20438;-89
2022/01/25 05:06:27;;;;;;;15.73;7.43;;;;;;;-7.93;67.94;98220.63;6150878;23;20981;-80
2022/01/25 05:09:03;;;;;;;11.40;6.57;;;;;;;-7.88;67.23;98237.59;6102223;23;20783;-85
2022/01/25 05:11:34;;;;;;;12.90;6.80;;;;;;;-7.89;67.86;98230.00;6123090;23;20450;-82
2022/01/25 05:14:15;;;;;;;22.40;8.90;;;;;;;-7.65;67.48;98241.13;6153036;23;20410;-82
2022/01/25 05:16:54;;;;;;;12.87;6.20;;;;;;;-7.58;66.74;98233.91;6149414;23;20490;-80
2022/01/25 05:22:20;;;;;;;14.70;6.23;;;;;;;-7.71;65.49;98173.00;5983561;23;20482;-83
2022/01/25 05:24:49;;;;;;;10.70;6.17;;;;;;;-7.31;64.59;98229.19;6089784;23;20424;-82
2022/01/25 05:27:21;;;;;;;18.33;9.70;;;;;;;-7.76;64.12;98136.72;6124835;23;20472;-86
2022/01/25 05:30:09;;;;;;;16.23;7.90;;;;;;;-7.20;64.55;98220.44;6101429;23;20415;-83
2022/01/25 05:32:44;;;;;;;14.93;7.83;;;;;;;-7.18;64.02;98212.94;6100946;23;20844;-84
2022/01/25 05:35:14;;;;;;;13.63;8.13;;;;;;;-7.40;63.61;98168.47;6099933;23;20409;-84
2022/01/25 05:37:52;;;;;;;10.00;6.43;;;;;;;-7.15;63.29;98210.56;6123330;23;20410;-84
2022/01/25 05:41:00;;;;;;;15.93;7.77;;;;;;;-7.59;63.54;98159.28;6121985;23;20497;-84
2022/01/25 05:46:21;;;;;;;10.93;6.10;;;;;;;-7.42;64.13;98210.28;6130102;23;20509;-84
2022/01/25 05:48:52;;;;;;;16.13;7.20;;;;;;;-7.66;64.22;98209.22;6124952;23;20405;-84
2022/01/25 05:51:52;;;;;;;13.93;6.30;;;;;;;-7.67;63.89;98222.59;6103103;23;20426;-87
2022/01/25 05:54:21;;;;;;;9.13;5.23;;;;;;;-7.60;63.74;98219.53;6099618;23;20751;-84
2022/01/25 05:57:01;;;;;;;10.93;6.23;;;;;;;-7.60;62.90;98205.31;6101189;23;20410;-85
2022/01/25 05:59:29;;;;;;;10.60;5.47;;;;;;;-7.36;63.27;98202.13;6125117;23;20686;-86
2022/01/25 06:02:01;;;;;;;14.57;7.77;;;;;;;-7.06;63.29;98205.91;6101251;23;20801;-84
2022/01/25 06:04:30;;;;;;;23.40;11.30;;;;;;;-6.87;62.85;98218.44;6150615;23;20391;-83
2022/01/25 06:07:00;;;;;;;23.30;11.63;;;;;;;-6.96;62.38;98218.94;6124979;23;20548;-84
2022/01/25 06:09:28;;;;;;;14.50;9.87;;;;;;;-7.03;62.33;98213.59;6105447;23;20441;-88
2022/01/25 06:11:55;;;;;;;11.47;7.50;;;;;;;-7.07;61.32;98189.97;6102523;23;20418;-84
2022/01/25 06:14:23;;;;;;;22.23;12.17;;;;;;;-6.92;61.54;98215.72;6112230;23;20406;-84
2022/01/25 06:16:53;;;;;;;14.17;7.77;;;;;;;-7.04;61.46;98182.53;6120764;23;20441;-89
2022/01/25 06:19:23;;;;;;;13.93;8.97;;;;;;;-6.63;61.15;98220.28;6145856;23;20425;-88
2022/01/25 06:21:52;;;;;;;16.27;8.00;;;;;;;-6.44;61.66;98220.97;6115198;23;20413;-86
2022/01/25 06:24:20;;;;;;;30.90;13.43;;;;;;;-6.28;61.56;98208.16;6125972;23;20899;-85
2022/01/25 06:26:59;;;;;;;27.13;12.23;;;;;;;-6.12;61.21;98206.28;6100827;23;20450;-87
2022/01/25 06:29:29;;;;;;;45.07;20.10;;;;;;;-6.43;62.03;98109.34;6151728;23;20417;-88
2022/01/25 06:32:00;;;;;;;49.57;23.17;;;;;;;-5.84;61.55;98198.06;6150245;23;20519;-83
2022/01/25 06:34:34;;;;;;;47.80;21.03;;;;;;;-5.90;60.04;98180.22;6134683;23;20419;-84
2022/01/25 06:37:06;;;;;;;43.07;21.13;;;;;;;-5.95;60.42;98199.34;6125791;23;20481;-87
2022/01/25 06:39:36;;;;;;;39.00;15.17;;;;;;;-6.34;60.18;98195.34;6150461;23;20743;-84
2022/01/25 06:42:04;;;;;;;29.53;14.63;;;;;;;-6.35;60.89;98216.31;6124815;23;20409;-86
2022/01/25 06:44:37;;;;;;;26.63;14.87;;;;;;;-6.33;60.51;98207.16;6124459;23;20426;-85
2022/01/25 06:47:07;;;;;;;30.20;13.83;;;;;;;-6.24;60.97;98213.38;6124047;23;20442;-84
2022/01/25 06:49:40;;;;;;;36.03;16.97;;;;;;;-6.18;61.84;98212.78;6054549;23;20410;-84
2022/01/25 06:52:11;;;;;;;37.97;16.43;;;;;;;-6.15;61.95;98202.78;6099696;23;20410;-86
2022/01/25 06:54:39;;;;;;;32.77;14.33;;;;;;;-6.47;60.58;98171.34;6124154;23;20406;-85
2022/01/25 06:57:10;;;;;;;31.67;15.57;;;;;;;-6.16;60.83;98206.13;6149301;23;20422;-86
2022/01/25 06:59:40;;;;;;;34.83;16.37;;;;;;;-6.25;61.45;98165.47;6149348;23;20403;-85
2022/01/25 07:02:08;;;;;;;22.80;13.77;;;;;;;-6.06;61.70;98208.19;6116023;23;20446;-85
2022/01/25 07:04:39;;;;;;;27.57;12.03;;;;;;;-6.03;63.38;98201.59;6102197;23;20465;-86
2022/01/25 07:07:15;;;;;;;25.30;9.47;;;;;;;-6.13;64.48;98198.66;6104710;23;20453;-85
2022/01/25 07:09:51;;;;;;;19.17;9.67;;;;;;;-6.31;65.90;98172.78;6129731;23;20388;-87
2022/01/25 07:12:32;;;;;;;13.37;9.07;;;;;;;-6.33;66.63;98154.25;6133002;23;20461;-87
2022/01/25 07:15:16;;;;;;;19.10;10.47;;;;;;;-6.01;65.85;98194.06;6124029;23;20416;-85
2022/01/25 07:17:50;;;;;;;37.67;18.17;;;;;;;-5.75;65.58;98190.81;6126528;23;20422;-83
2022/01/25 07:20:23;;;;;;;30.87;12.97;;;;;;;-5.93;65.35;98154.88;6077063;23;20422;-83
2022/01/25 07:22:53;;;;;;;17.50;10.77;;;;;;;-6.18;64.75;98087.59;6150093;23;20402;-85
2022/01/25 07:25:25;;;;;;;23.73;10.30;;;;;;;-5.69;63.83;98165.81;6124497;23;20946;-84
2022/01/25 07:28:28;;;;;;;12.10;7.20;;;;;;;-5.80;63.80;98192.31;6102538;23;20481;-84
2022/01/25 07:31:33;;;;;;;21.47;9.30;;;;;;;-5.98;64.32;98146.31;6150811;23;20403;-84
2022/01/25 07:34:23;;;;;;;24.80;10.13;;;;;;;-5.84;63.66;98157.72;6125142;23;20826;-84
2022/01/25 07:36:59;;;;;;;25.33;9.67;;;;;;;-5.64;63.52;98166.81;6150331;23;20391;-85
2022/01/25 07:39:45;;;;;;;18.63;8.77;;;;;;;-5.55;63.76;98191.50;6126128;23;20171;-84
2022/01/25 07:42:26;;;;;;;17.63;10.33;;;;;;;-5.49;63.04;98179.09;6104030;23;20404;-84
2022/01/25 07:45:11;;;;;;;26.73;9.57;;;;;;;-5.56;62.82;98185.59;6142117;23;20439;-85
2022/01/25 07:47:54;;;;;;;18.37;9.23;;;;;;;-5.53;63.29;98184.84;6152054;23;20446;-85
2022/01/25 07:54:10;;;;;;;20.17;9.40;;;;;;;-5.47;62.00;98174.97;6100936;23;20411;-85
2022/01/25 07:56:40;;;;;;;18.77;9.73;;;;;;;-5.58;61.85;98171.19;6128417;23;20402;-88
2022/01/25 08:00:22;;;;;;;25.27;11.60;;;;;;;-5.67;62.20;98121.31;6092272;23;20442;-86
2022/01/25 08:03:01;;;;;;;23.93;11.93;;;;;;;-5.53;61.49;98140.31;6127283;23;20489;-88
2022/01/25 08:05:48;;;;;;;20.23;10.23;;;;;;;-5.18;61.82;98186.91;6124181;23;20453;-89
2022/01/25 08:09:24;;;;;;;20.50;10.90;;;;;;;-5.22;60.73;98187.63;6153783;23;20952;-90
2022/01/25 08:12:12;;;;;;;23.00;12.13;;;;;;;-5.07;60.89;98193.19;6110539;23;20752;-84
2022/01/25 08:14:58;;;;;;;20.17;11.20;;;;;;;-4.95;60.73;98181.78;6152202;23;20391;-84
2022/01/25 08:17:36;;;;;;;21.97;10.60;;;;;;;-4.97;60.28;98170.78;6126267;23;20313;-85
2022/01/25 08:20:52;;;;;;;17.03;8.97;;;;;;;-4.92;60.36;98170.09;6071081;23;20286;-89
2022/01/25 08:23:49;;;;;;;25.10;8.43;;;;;;;-4.66;59.41;98189.47;6111946;23;20206;-89
2022/01/25 08:26:43;;;;;;;16.03;8.30;;;;;;;-4.63;59.17;98194.59;6118571;23;20207;-87
2022/01/25 08:29:43;;;;;;;18.70;8.47;;;;;;;-4.58;59.09;98196.47;6095707;23;20226;-88
2022/01/25 08:32:42;;;;;;;16.77;9.17;;;;;;;-4.55;59.34;98183.91;6011528;23;20219;-88
2022/01/25 08:35:28;;;;;;;18.87;9.23;;;;;;;-4.40;59.12;98173.41;5984656;23;20935;-89
2022/01/25 08:38:13;;;;;;;13.60;7.70;;;;;;;-4.47;58.61;98153.84;5987644;23;20414;-90
2022/01/25 08:41:11;;;;;;;15.67;6.67;;;;;;;-4.20;57.89;98184.97;5947898;23;20651;-90
2022/01/25 08:43:56;;;;;;;14.00;6.43;;;;;;;-4.22;57.39;98187.47;5976171;23;20413;-87
2022/01/25 08:46:46;;;;;;;13.13;7.63;;;;;;;-4.15;57.08;98188.50;5983121;23;20199;-90
2022/01/25 08:49:27;;;;;;;12.63;7.20;;;;;;;-4.14;57.13;98186.03;6013688;23;20170;-93
2022/01/25 08:52:17;;;;;;;14.07;7.57;;;;;;;-4.17;56.73;98180.91;5946821;24;20210;-90
2022/01/25 08:55:27;;;;;;;13.23;7.67;;;;;;;-4.01;57.80;98171.19;5978066;24;20624;-88
2022/01/25 08:59:25;;;;;;;15.00;8.23;;;;;;;-3.80;56.53;98162.56;5926902;24;20712;-89
2022/01/25 09:01:55;;;;;;;16.20;7.70;;;;;;;-3.63;55.92;98163.03;5901008;24;20608;-92
2022/01/25 09:04:28;;;;;;;14.80;7.47;;;;;;;-3.56;55.72;98157.28;5966959;24;20185;-85
2022/01/25 09:07:00;;;;;;;14.77;7.80;;;;;;;-3.60;55.75;98147.91;5944853;24;20262;-84
2022/01/25 09:09:34;;;;;;;16.30;7.93;;;;;;;-3.76;55.17;98100.25;5928744;24;20180;-86
2022/01/25 09:12:09;;;;;;;16.53;8.30;;;;;;;-3.35;54.52;98127.50;5950317;24;20203;-85
2022/01/25 09:14:57;;;;;;;13.83;7.20;;;;;;;-3.23;53.06;98142.13;5929890;24;20855;-85
2022/01/25 09:17:27;;;;;;;19.87;9.60;;;;;;;-3.32;53.43;98130.94;6021744;23;20180;-85
2022/01/25 09:20:17;;;;;;;20.73;8.33;;;;;;;-3.06;52.93;98135.81;6034621;23;20648;-83
2022/01/25 09:23:05;;;;;;;20.20;7.73;;;;;;;-2.91;52.23;98131.13;6059846;23;20193;-88
2022/01/25 09:26:01;;;;;;;12.37;6.43;;;;;;;-2.72;52.17;98128.22;6005209;23;20177;-85
2022/01/25 09:28:42;;;;;;;14.63;7.13;;;;;;;-2.80;50.76;98120.41;6061171;23;20230;-83
2022/01/25 09:31:29;;;;;;;13.60;7.43;;;;;;;-2.70;51.05;98129.94;6040471;23;20169;-90
2022/01/25 09:34:03;;;;;;;12.93;7.27;;;;;;;-2.65;50.97;98119.91;6015571;23;21067;-85
2022/01/25 09:36:39;;;;;;;11.57;7.33;;;;;;;-2.60;50.49;98118.34;6017710;23;20173;-87
2022/01/25 09:39:19;;;;;;;10.33;6.60;;;;;;;-2.32;50.75;98115.59;6020488;23;20233;-90
2022/01/25 09:42:04;;;;;;;13.97;7.40;;;;;;;-2.14;51.04;98103.28;6038873;23;20740;-86
2022/01/25 09:44:43;;;;;;;14.03;6.97;;;;;;;-2.06;50.47;98106.81;6062365;23;20225;-85
2022/01/25 09:47:21;;;;;;;13.73;6.63;;;;;;;-2.06;50.27;98091.59;5991912;23;20210;-86
2022/01/25 09:49:49;;;;;;;13.70;6.83;;;;;;;-2.01;50.64;98084.94;5990997;23;20172;-85
2022/01/25 09:52:27;;;;;;;17.07;7.77;;;;;;;-1.94;50.35;98096.09;6061287;23;20211;-86
2022/01/25 09:55:01;;;;;;;15.27;6.87;;;;;;;-2.03;50.14;98067.97;6042696;23;20256;-85
2022/01/25 09:57:35;;;;;;;13.53;7.20;;;;;;;-1.85;50.03;98096.25;6100552;23;20173;-85
2022/01/25 10:00:17;;;;;;;8.73;6.00;;;;;;;-1.91;48.90;98099.53;6152394;23;20174;-83
2022/01/25 10:03:25;;;;;;;15.00;7.60;;;;;;;-1.97;50.58;98068.97;6128770;23;20173;-88
2022/01/25 10:05:58;;;;;;;15.40;6.87;;;;;;;-1.72;50.85;98086.38;6153648;23;20178;-86
2022/01/25 10:08:32;;;;;;;15.83;6.67;;;;;;;-1.97;49.83;98038.50;6127884;23;20210;-83
2022/01/25 10:11:16;;;;;;;10.27;5.97;;;;;;;-1.80;49.70;98066.75;6152394;23;20169;-87
2022/01/25 10:14:09;;;;;;;16.90;6.67;;;;;;;-1.89;49.73;98059.81;6147126;23;20168;-84
2022/01/25 10:16:52;;;;;;;11.40;6.40;;;;;;;-1.66;50.36;98076.31;6101594;23;20185;-86
2022/01/25 10:19:26;;;;;;;12.50;6.50;;;;;;;-1.61;50.48;98060.31;6126446;23;20181;-85
2022/01/25 10:21:59;;;;;;;19.47;9.67;;;;;;;-1.46;50.40;98068.22;6103059;23;20245;-87
2022/01/25 10:24:35;;;;;;;18.23;7.87;;;;;;;-1.44;49.91;98066.56;6152866;23;20167;-86
2022/01/25 10:27:04;;;;;;;13.83;7.13;;;;;;;-1.51;49.04;98054.56;6079478;23;20244;-86
2022/01/25 10:29:48;;;;;;;20.33;9.00;;;;;;;-1.45;49.22;98042.84;6127402;23;20182;-86
2022/01/25 10:32:24;;;;;;;17.00;8.73;;;;;;;-1.61;49.50;98027.31;6080031;23;20185;-86
2022/01/25 10:34:53;;;;;;;20.47;8.90;;;;;;;-1.56;49.60;98031.63;6127766;23;20673;-85
2022/01/25 10:37:48;;;;;;;10.57;6.83;;;;;;;-1.54;49.37;98039.25;6125768;23;20639;-85
2022/01/25 10:41:18;;;;;;;13.30;7.00;;;;;;;-1.61;49.01;98029.84;6127067;23;20259;-85
2022/01/25 10:43:56;;;;;;;12.53;6.63;;;;;;;-1.46;49.17;98025.03;6152832;23;20179;-86
2022/01/25 10:46:34;;;;;;;10.17;6.30;;;;;;;-1.54;48.72;98018.94;6102454;23;20245;-83
2022/01/25 10:49:52;;;;;;;13.00;7.47;;;;;;;-1.39;48.05;98026.84;6081532;23;20177;-84
2022/01/25 10:53:26;;;;;;;9.67;5.93;;;;;;;-1.35;47.95;98018.44;6105917;23;20180;-85
2022/01/25 10:56:57;;;;;;;14.50;7.53;;;;;;;-1.14;48.51;98011.16;6133232;23;20193;-83
2022/01/25 11:00:23;;;;;;;12.60;7.43;;;;;;;-0.97;47.55;98010.56;6110294;23;20175;-83
2022/01/25 11:03:53;;;;;;;9.43;5.37;;;;;;;-1.16;47.10;98000.13;6117784;23;20178;-87
2022/01/25 11:07:16;;;;;;;10.17;5.87;;;;;;;-1.13;47.53;98000.16;6114501;23;20183;-84
2022/01/25 11:10:43;;;;;;;9.70;5.53;;;;;;;-1.36;47.31;97983.72;6110082;23;20168;-87
2022/01/25 11:17:47;;;;;;;9.67;4.50;;;;;;;-1.45;46.57;97993.72;6155825;23;20189;-89
2022/01/25 11:21:12;;;;;;;6.63;4.13;;;;;;;-1.40;46.00;98005.66;6099678;23;20193;-87
2022/01/25 11:24:34;;;;;;;9.67;4.43;;;;;;;-1.36;46.50;97976.09;6103329;23;20175;-88
2022/01/25 11:28:00;;;;;;;11.67;5.53;;;;;;;-1.12;46.01;97974.78;6155370;23;20233;-88
2022/01/25 11:31:41;;;;;;;8.60;5.07;;;;;;;-1.21;46.01;97973.78;6133251;23;20616;-86
2022/01/25 11:35:34;;;;;;;8.90;4.93;;;;;;;-1.31;47.06;97977.00;6000529;23;20188;-88
2022/01/25 11:38:55;;;;;;;8.90;5.33;;;;;;;-1.09;47.27;97984.09;6003783;23;20746;-90
2022/01/25 11:42:21;;;;;;;18.60;5.87;;;;;;;-1.27;47.64;97976.22;6010859;23;20253;-84
2022/01/25 11:45:49;;;;;;;7.27;4.27;;;;;;;-1.31;47.46;97965.16;5992618;23;21623;-85
2022/01/25 11:49:10;;;;;;;6.73;4.07;;;;;;;-1.36;48.11;97965.94;6032984;23;20518;-88
2022/01/25 11:52:32;;;;;;;8.80;5.37;;;;;;;-1.49;48.16;97954.72;6031705;23;20543;-85
2022/01/25 11:56:21;;;;;;;10.67;5.97;;;;;;;-1.44;48.29;97954.81;6035187;23;20176;-89
2022/01/25 11:59:42;;;;;;;6.23;4.60;;;;;;;-1.43;48.26;97936.19;6011293;23;20226;-86
2022/01/25 12:03:05;;;;;;;9.77;5.40;;;;;;;-1.47;48.35;97931.88;6018139;23;20213;-84
2022/01/25 12:06:31;;;;;;;8.53;5.67;;;;;;;-1.44;48.41;97925.16;6042914;23;20224;-82
2022/01/25 12:10:13;;;;;;;18.13;9.30;;;;;;;-1.30;48.87;97933.84;6119102;23;20169;-85
2022/01/25 12:13:33;;;;;;;10.23;5.60;;;;;;;-1.00;47.39;97933.44;6126181;23;20185;-84
2022/01/25 12:16:53;;;;;;;7.87;5.20;;;;;;;-0.82;47.28;97931.13;6126738;23;20166;-83
2022/01/25 12:20:24;;;;;;;5.97;4.37;;;;;;;-0.73;46.70;97938.88;6098757;23;20580;-84
2022/01/25 12:23:55;;;;;;;6.37;4.23;;;;;;;-0.72;45.93;97935.47;6128118;23;20196;-84
2022/01/25 12:27:18;;;;;;;7.40;4.60;;;;;;;-0.55;46.10;97921.28;6119921;23;20528;-86
2022/01/25 12:30:27;;;;;;;7.13;3.93;;;;;;;-0.63;46.22;97925.44;6149059;23;20173;-84
2022/01/25 12:34:06;;;;;;;8.90;4.63;;;;;;;-0.64;46.42;97915.25;6150129;23;20171;-84
2022/01/25 12:37:44;;;;;;;8.53;4.93;;;;;;;-0.49;46.52;97913.72;6151498;23;20214;-84
2022/01/25 12:41:10;;;;;;;6.80;3.30;;;;;;;-0.72;46.46;97901.59;6123491;23;20191;-84
2022/01/25 12:44:37;;;;;;;6.97;3.53;;;;;;;-0.62;45.01;97898.31;6123084;23;20172;-84
2022/01/25 12:47:59;;;;;;;10.97;5.23;;;;;;;-0.46;43.57;97902.72;6126146;23;20209;-85
2022/01/25 12:51:23;;;;;;;7.40;4.37;;;;;;;-0.44;43.44;97903.59;6102022;23;20226;-84
2022/01/25 12:54:45;;;;;;;6.30;4.27;;;;;;;-0.68;44.79;97904.16;6101478;23;20163;-84
2022/01/25 12:58:09;;;;;;;6.90;4.20;;;;;;;-0.77;46.33;97891.38;6148919;23;20254;-86
2022/01/25 13:01:33;;;;;;;12.67;5.33;;;;;;;-0.54;45.80;97895.03;6103186;23;20198;-85
2022/01/25 13:04:59;;;;;;;7.43;4.13;;;;;;;-0.72;45.50;97876.16;6101330;23;20178;-85
2022/01/25 13:08:37;;;;;;;6.70;4.20;;;;;;;-0.71;44.40;97891.44;6111343;23;20305;-86
2022/01/25 13:12:15;;;;;;;9.97;5.80;;;;;;;-0.72;45.85;97879.53;6103661;23;20622;-88
2022/01/25 13:19:08;;;;;;;9.13;4.90;;;;;;;-0.78;45.07;97882.00;6123679;23;20167;-87
2022/01/25 13:22:40;;;;;;;9.70;6.20;;;;;;;-0.83;46.18;97883.66;6129069;23;20170;-88
2022/01/25 13:26:13;;;;;;;8.23;5.23;;;;;;;-0.95;44.77;97878.44;6154129;23;20174;-87
2022/01/25 13:33:17;;;;;;;9.53;5.97;;;;;;;-0.96;46.83;97895.38;6123304;23;20174;-88
2022/01/25 13:36:42;;;;;;;7.57;4.93;;;;;;;-0.95;46.86;97886.88;6129035;23;20169;-89
2022/01/25 13:40:04;;;;;;;8.03;5.27;;;;;;;-0.96;46.93;97881.78;6124540;23;20530;-87
2022/01/25 13:46:48;;;;;;;6.93;4.00;;;;;;;-1.01;46.85;97886.81;6151400;23;20245;-85
2022/01/25 13:50:13;;;;;;;8.33;4.50;;;;;;;-1.20;47.13;97858.63;6124657;23;20753;-90
2022/01/25 13:53:35;;;;;;;9.27;5.60;;;;;;;-0.99;47.24;97877.53;6099956;23;20183;-88
2022/01/25 13:56:59;;;;;;;7.00;4.40;;;;;;;-0.98;46.77;97879.25;6150621;23;20245;-89
2022/01/25 14:00:24;;;;;;;6.73;4.07;;;;;;;-1.11;46.31;97886.66;6128236;23;20167;-88
2022/01/25 14:03:44;;;;;;;12.53;5.87;;;;;;;-1.05;47.58;97876.63;6093538;23;20278;-83
2022/01/25 14:06:51;;;;;;;8.17;4.33;;;;;;;-1.11;46.28;97887.53;6093504;23;20167;-86
2022/01/25 14:10:24;;;;;;;6.80;4.80;;;;;;;-1.17;47.42;97886.59;6074183;23;20243;-88
2022/01/25 14:24:54;;;;;;;8.70;5.23;;;;;;;-1.41;46.42;97879.50;6124571;23;20623;-86
2022/01/25 14:28:20;;;;;;;8.23;5.70;;;;;;;-1.44;46.71;97871.00;6073952;23;20244;-85
2022/01/25 14:31:42;;;;;;;7.93;4.63;;;;;;;-1.66;47.18;97841.88;6070301;23;20178;-85
2022/01/25 14:35:21;;;;;;;9.10;4.90;;;;;;;-1.63;46.50;97853.78;6093726;23;20539;-85
2022/01/25 14:38:43;;;;;;;8.67;5.13;;;;;;;-1.59;46.85;97871.63;6094765;23;20662;-85
2022/01/25 14:42:06;;;;;;;5.83;3.93;;;;;;;-1.66;47.08;97883.38;6075222;23;20178;-85
2022/01/25 14:44:47;;;;;;;6.27;4.63;;;;;;;-1.63;46.99;97886.78;6097656;23;20171;-87
2022/01/25 14:47:21;;;;;;;11.43;4.90;;;;;;;-1.71;47.21;97869.75;6097077;23;20567;-86
2022/01/25 14:49:48;;;;;;;8.87;4.10;;;;;;;-1.91;46.49;97853.38;6096451;23;20225;-83
2022/01/25 14:52:18;;;;;;;8.00;4.10;;;;;;;-1.81;46.88;97870.44;6072708;23;20242;-86
2022/01/25 14:54:46;;;;;;;8.13;4.93;;;;;;;-2.16;47.47;97830.09;6096225;23;20219;-87
2022/01/25 14:57:19;;;;;;;7.60;4.27;;;;;;;-1.90;47.00;97883.00;6072173;23;20186;-85
2022/01/25 14:59:47;;;;;;;8.87;5.37;;;;;;;-1.93;47.38;97880.41;6073946;23;20174;-86
2022/01/25 15:02:19;;;;;;;10.13;5.53;;;;;;;-1.99;47.23;97865.06;6114372;23;20200;-84
2022/01/25 15:04:58;;;;;;;10.07;6.60;;;;;;;-2.06;47.54;97862.44;6124867;23;20256;-84
2022/01/25 15:07:30;;;;;;;12.80;5.03;;;;;;;-2.09;47.20;97868.28;6124718;23;20319;-84
2022/01/25 15:10:04;;;;;;;7.03;5.03;;;;;;;-2.02;46.82;97882.78;6125041;23;20195;-87